Time;durP1;ratioP1;P1;durP2;ratioP2;P2;SDS_P1;SDS_P2;PMS_P1;PMS_P2;Temp;Humidity;BMP_temperature;BMP_pressure;BME280_temperature;BME280_humidity;BME280_pressure;Samples;Min_cycle;Max_cycle;Signal;HPM_P1;HPM_P2
2021/12/01 00:02:24;;;;;;;11.25;3.40;;;8.30;99.90;;;;;;4983190;28;20480;-74
2021/12/01 00:04:49;;;;;;;5.65;2.85;;;8.30;99.90;;;;;;4982347;28;20126;-72
2021/12/01 00:07:15;;;;;;;6.25;2.50;;;8.30;99.90;;;;;;4980583;28;20045;-74
2021/12/01 00:09:41;;;;;;;3.78;2.83;;;8.30;99.90;;;;;;4978064;28;20497;-73
2021/12/01 00:12:07;;;;;;;5.97;2.47;;;8.30;99.90;;;;;;4986540;28;20093;-78
2021/12/01 00:14:33;;;;;;;5.57;2.67;;;8.30;99.90;;;;;;4989820;28;20695;-74
2021/12/01 00:16:59;;;;;;;5.07;3.00;;;8.30;99.90;;;;;;4987043;28;20026;-73
2021/12/01 00:19:24;;;;;;;3.50;2.20;;;8.20;99.90;;;;;;4989313;28;20030;-74
2021/12/01 00:21:50;;;;;;;3.80;2.38;;;8.30;99.90;;;;;;4985676;28;20050;-73
2021/12/01 00:24:16;;;;;;;3.90;2.70;;;8.20;99.90;;;;;;4989209;28;20041;-75
2021/12/01 00:26:42;;;;;;;2.80;2.17;;;8.20;99.90;;;;;;4989736;28;20026;-73
2021/12/01 00:29:07;;;;;;;8.52;2.60;;;8.30;99.90;;;;;;4980368;28;20606;-73
2021/12/01 00:31:33;;;;;;;5.38;3.08;;;8.30;99.90;;;;;;4986296;28;20057;-73
2021/12/01 00:34:00;;;;;;;7.10;2.72;;;8.30;99.90;;;;;;4987833;28;20023;-72
2021/12/01 00:36:29;;;;;;;3.67;2.70;;;8.30;99.90;;;;;;4976620;28;20081;-73
2021/12/01 00:38:55;;;;;;;7.38;2.38;;;8.10;99.90;;;;;;4987543;28;20053;-72
2021/12/01 00:41:23;;;;;;;2.88;2.50;;;8.10;99.90;;;;;;4985636;28;20084;-73
2021/12/01 00:43:50;;;;;;;4.45;2.42;;;8.20;99.90;;;;;;4987140;28;20391;-73
2021/12/01 00:46:35;;;;;;;7.63;2.70;;;8.20;99.90;;;;;;4986928;28;20112;-73
2021/12/01 00:49:01;;;;;;;9.98;2.70;;;8.20;99.90;;;;;;4987394;28;20034;-73
2021/12/01 00:51:26;;;;;;;4.10;1.92;;;8.10;99.90;;;;;;4972593;28;20520;-73
2021/12/01 00:53:52;;;;;;;4.80;2.83;;;8.00;99.90;;;;;;4983681;28;20023;-72
2021/12/01 00:56:18;;;;;;;5.45;2.53;;;7.90;99.90;;;;;;4978340;28;20066;-73
2021/12/01 00:58:43;;;;;;;5.78;3.10;;;7.90;99.90;;;;;;4986528;28;20030;-73
2021/12/01 01:01:09;;;;;;;8.02;2.72;;;8.00;99.90;;;;;;4978639;28;20136;-72
2021/12/01 01:03:35;;;;;;;7.00;3.50;;;7.90;99.90;;;;;;4997033;28;20031;-73
2021/12/01 01:06:01;;;;;;;7.95;2.70;;;7.80;99.90;;;;;;4985910;28;20031;-74
2021/12/01 01:08:27;;;;;;;4.18;2.47;;;7.80;99.90;;;;;;4986386;28;20034;-71
2021/12/01 01:11:10;;;;;;;9.65;3.33;;;7.80;99.90;;;;;;4991519;28;20038;-72
2021/12/01 01:16:24;;;;;;;9.10;2.42;;;7.80;99.90;;;;;;4992129;28;19917;-73
2021/12/01 01:18:59;;;;;;;5.90;2.83;;;7.70;99.90;;;;;;4990762;28;20041;-72
2021/12/01 01:21:32;;;;;;;6.22;2.90;;;7.70;99.90;;;;;;4985877;28;20041;-72
2021/12/01 01:23:58;;;;;;;9.10;2.63;;;7.60;99.90;;;;;;4989649;28;20110;-72
2021/12/01 01:26:24;;;;;;;5.47;2.05;;;7.50;99.90;;;;;;4989129;28;20030;-72
2021/12/01 01:28:51;;;;;;;5.68;2.85;;;7.40;99.90;;;;;;4988281;28;20035;-73
2021/12/01 01:31:18;;;;;;;7.72;2.88;;;7.40;99.90;;;;;;4990265;28;20038;-72
2021/12/01 01:33:44;;;;;;;6.90;2.90;;;7.30;99.90;;;;;;4990575;28;20074;-73
2021/12/01 01:36:10;;;;;;;7.10;2.17;;;7.30;99.90;;;;;;4989010;28;20015;-73
2021/12/01 01:38:36;;;;;;;7.13;2.80;;;7.30;99.90;;;;;;4985638;28;20097;-73
2021/12/01 01:41:06;;;;;;;5.05;2.22;;;7.30;99.90;;;;;;4990403;28;20098;-73
2021/12/01 01:43:33;;;;;;;2.30;2.10;;;7.30;99.90;;;;;;4986971;28;20026;-73
2021/12/01 01:45:59;;;;;;;9.32;2.60;;;7.30;99.90;;;;;;4989366;28;20182;-73
2021/12/01 01:48:32;;;;;;;6.88;2.55;;;7.30;99.90;;;;;;4990872;28;20449;-74
2021/12/01 01:51:00;;;;;;;7.10;2.50;;;7.30;99.90;;;;;;4992474;28;20026;-72
2021/12/01 01:53:28;;;;;;;5.45;2.90;;;7.40;99.90;;;;;;4988974;28;20031;-74
2021/12/01 01:56:01;;;;;;;5.88;2.25;;;7.30;99.90;;;;;;4989087;28;20121;-72
2021/12/01 01:58:28;;;;;;;8.15;2.47;;;7.50;99.90;;;;;;4987636;28;20030;-72
2021/12/01 02:01:13;;;;;;;8.35;1.92;;;7.60;99.90;;;;;;4991129;28;20022;-72
2021/12/01 02:03:41;;;;;;;8.30;2.38;;;7.60;99.90;;;;;;4981881;28;20034;-73
2021/12/01 02:06:09;;;;;;;6.93;2.35;;;7.60;99.90;;;;;;4988304;28;20038;-73
2021/12/01 02:08:37;;;;;;;9.80;2.38;;;7.60;99.90;;;;;;4990369;28;20026;-73
2021/12/01 02:11:05;;;;;;;8.80;2.75;;;7.50;99.90;;;;;;4991929;28;20023;-73
2021/12/01 02:13:32;;;;;;;7.38;3.13;;;7.40;99.90;;;;;;4990349;28;20114;-73
2021/12/01 02:15:58;;;;;;;13.43;3.42;;;7.40;99.90;;;;;;4990601;28;20105;-73
2021/12/01 02:18:25;;;;;;;5.05;2.95;;;7.30;99.90;;;;;;4992270;28;20106;-73
2021/12/01 02:21:11;;;;;;;7.15;2.83;;;7.30;99.90;;;;;;4989260;28;20034;-73
2021/12/01 02:23:39;;;;;;;8.05;3.28;;;7.30;99.90;;;;;;4986909;28;20038;-72
2021/12/01 02:26:06;;;;;;;6.75;2.72;;;7.30;99.90;;;;;;4989416;28;20030;-73
2021/12/01 02:28:32;;;;;;;12.95;3.03;;;7.20;99.90;;;;;;4991278;28;20116;-73
2021/12/01 02:30:59;;;;;;;4.65;2.40;;;7.20;99.90;;;;;;4990436;28;20075;-73
2021/12/01 02:33:25;;;;;;;6.05;3.35;;;7.20;99.90;;;;;;4989946;28;20023;-73
2021/12/01 02:35:52;;;;;;;7.80;2.40;;;7.20;99.90;;;;;;4989886;28;20041;-73
2021/12/01 02:38:18;;;;;;;9.57;3.78;;;7.20;99.90;;;;;;4988813;28;20026;-73
2021/12/01 02:40:45;;;;;;;6.00;2.78;;;7.20;99.90;;;;;;4988066;28;20113;-73
2021/12/01 02:43:11;;;;;;;5.65;4.72;;;7.20;99.90;;;;;;4983208;28;20031;-73
2021/12/01 02:45:39;;;;;;;7.80;2.58;;;7.30;99.90;;;;;;4979686;28;20031;-73
2021/12/01 02:48:06;;;;;;;6.22;3.08;;;7.30;99.90;;;;;;4988715;28;20018;-72
2021/12/01 02:50:32;;;;;;;5.35;2.45;;;7.20;99.90;;;;;;4992303;28;20027;-72
2021/12/01 02:52:58;;;;;;;9.35;2.78;;;7.20;99.90;;;;;;4985250;28;20049;-73
2021/12/01 02:55:27;;;;;;;6.55;2.90;;;7.20;99.90;;;;;;4983680;28;20027;-72
2021/12/01 02:57:54;;;;;;;8.00;2.88;;;7.30;99.90;;;;;;4987041;28;20488;-72
2021/12/01 03:00:22;;;;;;;5.20;2.03;;;7.40;99.90;;;;;;4990876;28;20027;-73
2021/12/01 03:02:49;;;;;;;6.68;2.45;;;7.50;99.90;;;;;;4985970;28;20117;-73
2021/12/01 03:05:16;;;;;;;2.72;2.20;;;7.40;99.90;;;;;;4990988;28;20373;-74
2021/12/01 03:07:44;;;;;;;9.55;2.60;;;7.40;99.90;;;;;;4987917;28;20035;-73
2021/12/01 03:10:11;;;;;;;4.78;2.20;;;7.40;99.90;;;;;;4984313;28;20037;-73
2021/12/01 03:12:39;;;;;;;7.45;2.22;;;7.40;99.90;;;;;;4989130;28;20436;-73
2021/12/01 03:15:06;;;;;;;7.15;2.20;;;7.40;99.90;;;;;;4990585;28;20029;-73
2021/12/01 03:17:32;;;;;;;5.40;2.58;;;7.40;99.90;;;;;;4989913;28;20027;-73
2021/12/01 03:19:59;;;;;;;6.93;4.53;;;7.40;99.90;;;;;;4986084;28;20025;-73
2021/12/01 03:22:26;;;;;;;4.00;2.20;;;7.60;99.90;;;;;;4979904;28;20050;-72
2021/12/01 03:24:53;;;;;;;10.43;3.03;;;7.50;99.90;;;;;;4989482;28;20038;-72
2021/12/01 03:27:19;;;;;;;12.20;2.10;;;7.70;99.90;;;;;;4990744;28;20105;-72
2021/12/01 03:29:46;;;;;;;5.97;2.55;;;7.90;99.90;;;;;;4989097;28;20074;-73
2021/12/01 03:32:13;;;;;;;7.60;2.25;;;8.30;99.90;;;;;;4988270;28;20041;-73
2021/12/01 03:34:40;;;;;;;4.80;3.47;;;8.40;99.90;;;;;;4989530;28;20606;-72
2021/12/01 03:37:06;;;;;;;8.60;2.95;;;8.60;99.90;;;;;;4987173;28;20507;-72
2021/12/01 03:39:32;;;;;;;3.88;2.47;;;8.60;99.90;;;;;;4986291;28;20051;-73
2021/12/01 03:41:58;;;;;;;8.85;3.15;;;8.70;99.90;;;;;;4988754;28;20073;-72
2021/12/01 03:44:24;;;;;;;5.97;2.20;;;8.70;99.90;;;;;;4984202;28;20034;-72
2021/12/01 03:46:50;;;;;;;13.35;3.17;;;8.70;99.90;;;;;;4988171;28;20066;-73
2021/12/01 03:49:16;;;;;;;7.35;2.88;;;8.70;99.90;;;;;;4987007;28;20041;-72
2021/12/01 03:51:42;;;;;;;6.38;2.92;;;8.80;99.90;;;;;;4990001;28;20575;-73
2021/12/01 03:54:08;;;;;;;20.95;3.05;;;8.90;99.90;;;;;;4990563;28;20074;-72
2021/12/01 03:56:34;;;;;;;8.80;3.13;;;8.80;99.90;;;;;;4989507;28;20030;-73
2021/12/01 03:59:01;;;;;;;3.53;2.05;;;8.80;99.90;;;;;;4988054;28;20038;-72
2021/12/01 04:01:27;;;;;;;6.60;2.40;;;8.80;99.90;;;;;;4989882;28;20156;-72
2021/12/01 04:03:53;;;;;;;6.38;2.90;;;8.80;99.90;;;;;;4989597;28;20090;-72
2021/12/01 04:06:19;;;;;;;5.13;2.40;;;8.90;99.90;;;;;;4988997;28;20124;-73
2021/12/01 04:08:45;;;;;;;7.53;2.47;;;8.90;99.90;;;;;;4989091;28;20026;-73
2021/12/01 04:11:11;;;;;;;2.65;2.20;;;8.90;99.90;;;;;;4987723;28;20128;-71
2021/12/01 04:13:36;;;;;;;4.82;2.45;;;8.80;99.90;;;;;;4980043;28;20074;-73
2021/12/01 04:16:02;;;;;;;9.90;2.30;;;8.90;99.90;;;;;;4979595;28;20073;-73
2021/12/01 04:18:29;;;;;;;10.85;3.63;;;8.90;99.90;;;;;;4989819;28;20535;-74
2021/12/01 04:20:55;;;;;;;3.72;2.00;;;8.90;99.90;;;;;;4988462;28;20034;-73
2021/12/01 04:23:21;;;;;;;9.88;3.97;;;9.00;99.90;;;;;;4986889;28;20041;-74
2021/12/01 04:25:47;;;;;;;10.60;2.28;;;9.00;99.90;;;;;;4985822;28;20068;-73
2021/12/01 04:28:12;;;;;;;3.47;2.50;;;8.90;99.90;;;;;;4987486;28;20038;-74
2021/12/01 04:30:38;;;;;;;3.42;3.15;;;9.00;99.90;;;;;;4981656;28;20026;-72
2021/12/01 04:33:04;;;;;;;10.15;3.90;;;8.90;99.90;;;;;;4983877;28;20495;-73
2021/12/01 04:35:30;;;;;;;14.07;3.65;;;8.90;99.90;;;;;;4987335;28;20101;-72
2021/12/01 04:37:57;;;;;;;10.15;7.22;;;8.80;99.90;;;;;;4988837;28;20022;-73
2021/12/01 04:40:23;;;;;;;5.93;2.47;;;8.70;99.90;;;;;;4982882;28;20031;-72
2021/12/01 04:42:49;;;;;;;5.55;3.53;;;8.70;99.90;;;;;;4988919;28;20030;-72
2021/12/01 04:45:17;;;;;;;7.93;3.30;;;8.60;99.90;;;;;;4992704;28;20034;-72
2021/12/01 04:47:48;;;;;;;7.93;2.95;;;8.50;99.90;;;;;;4989714;28;20624;-72
2021/12/01 04:50:15;;;;;;;11.82;2.58;;;8.70;99.90;;;;;;4990954;28;20081;-72
2021/12/01 04:52:41;;;;;;;8.13;3.00;;;8.80;99.90;;;;;;4992046;28;20046;-71
2021/12/01 04:55:07;;;;;;;6.90;2.83;;;8.70;99.90;;;;;;4993538;28;20237;-72
2021/12/01 04:57:33;;;;;;;5.55;2.05;;;8.70;99.90;;;;;;4991666;28;20053;-72
2021/12/01 04:59:59;;;;;;;3.35;2.13;;;8.70;99.90;;;;;;4991434;28;20136;-72
2021/12/01 05:02:24;;;;;;;8.45;1.75;;;8.60;99.90;;;;;;4988792;28;20038;-72
2021/12/01 05:04:50;;;;;;;6.20;2.10;;;8.70;99.90;;;;;;4992057;28;20030;-74
2021/12/01 05:07:17;;;;;;;6.20;2.60;;;8.80;99.90;;;;;;4990812;28;20042;-73
2021/12/01 05:09:43;;;;;;;5.45;2.17;;;8.70;99.90;;;;;;4991158;28;20030;-73
2021/12/01 05:12:09;;;;;;;7.18;2.30;;;8.60;99.90;;;;;;4990855;28;20081;-72
2021/12/01 05:14:36;;;;;;;5.80;2.33;;;8.60;99.90;;;;;;4992372;28;20049;-72
2021/12/01 05:17:03;;;;;;;4.55;2.78;;;8.70;99.90;;;;;;4991545;28;20095;-72
2021/12/01 05:19:29;;;;;;;3.28;2.47;;;8.70;99.90;;;;;;4991150;28;20053;-72
2021/12/01 05:21:55;;;;;;;5.22;2.42;;;8.60;99.90;;;;;;4989213;28;20026;-73
2021/12/01 05:24:21;;;;;;;6.60;3.25;;;8.60;99.90;;;;;;4991700;28;20117;-72
2021/12/01 05:26:47;;;;;;;10.13;2.10;;;8.80;99.90;;;;;;4981583;28;20069;-72
2021/12/01 05:29:13;;;;;;;6.05;2.35;;;8.80;99.90;;;;;;4990848;28;20066;-73
2021/12/01 05:31:39;;;;;;;4.13;2.80;;;8.60;99.90;;;;;;4989858;28;20027;-72
2021/12/01 05:34:05;;;;;;;6.13;2.67;;;8.60;99.90;;;;;;4993305;28;20073;-74
2021/12/01 05:36:31;;;;;;;4.95;2.22;;;8.60;99.90;;;;;;4990637;28;20076;-72
2021/12/01 05:38:57;;;;;;;8.23;3.08;;;8.50;99.90;;;;;;4992794;28;20033;-73
2021/12/01 05:41:23;;;;;;;8.95;1.90;;;8.50;99.90;;;;;;4990148;28;20041;-73
2021/12/01 05:43:49;;;;;;;6.72;2.50;;;8.50;99.90;;;;;;4990544;28;20074;-73
2021/12/01 05:46:15;;;;;;;2.78;1.90;;;8.50;99.90;;;;;;4984863;28;20073;-73
2021/12/01 05:48:41;;;;;;;8.38;2.22;;;8.50;99.90;;;;;;4990998;28;20515;-72
2021/12/01 05:51:07;;;;;;;8.75;2.40;;;8.60;99.90;;;;;;4984971;28;20034;-72
2021/12/01 05:53:34;;;;;;;7.22;2.33;;;8.50;99.90;;;;;;4992459;28;20031;-72
2021/12/01 05:55:59;;;;;;;7.30;2.30;;;8.60;99.90;;;;;;4989936;28;20440;-72
2021/12/01 05:58:25;;;;;;;13.18;2.88;;;8.60;99.90;;;;;;4991052;28;20104;-74
2021/12/01 06:00:51;;;;;;;8.43;2.88;;;8.60;99.90;;;;;;4993689;28;20069;-73
2021/12/01 06:03:17;;;;;;;6.22;3.35;;;8.50;99.90;;;;;;4993367;28;20038;-73
2021/12/01 06:05:44;;;;;;;7.53;2.70;;;8.60;99.90;;;;;;4987411;28;20031;-73
2021/12/01 06:08:10;;;;;;;4.60;2.55;;;8.50;99.90;;;;;;4992051;28;20041;-72
2021/12/01 06:10:36;;;;;;;8.70;3.25;;;8.40;99.90;;;;;;4992961;28;20026;-73
2021/12/01 06:13:04;;;;;;;9.27;3.40;;;8.40;99.90;;;;;;5006562;28;20096;-73
2021/12/01 06:15:31;;;;;;;5.90;2.75;;;8.40;99.90;;;;;;4992722;28;20050;-73
2021/12/01 06:17:58;;;;;;;6.13;3.53;;;8.30;99.90;;;;;;4990585;28;20026;-73
2021/12/01 06:20:24;;;;;;;6.25;2.95;;;8.40;99.90;;;;;;4992446;28;20064;-73
2021/12/01 06:22:52;;;;;;;7.72;3.75;;;8.40;99.90;;;;;;5001568;28;20068;-73
2021/12/01 06:25:18;;;;;;;7.28;3.10;;;8.40;99.90;;;;;;4989055;28;20034;-68
2021/12/01 06:27:44;;;;;;;4.53;2.58;;;8.40;99.90;;;;;;4987876;28;20476;-67
2021/12/01 06:30:11;;;;;;;7.18;3.70;;;8.50;99.90;;;;;;4989665;28;20030;-69
2021/12/01 06:32:37;;;;;;;6.82;3.13;;;8.40;99.90;;;;;;4982529;28;20037;-67
2021/12/01 06:35:04;;;;;;;6.40;2.97;;;8.40;99.90;;;;;;4984495;28;20061;-67
2021/12/01 06:37:31;;;;;;;10.38;3.03;;;8.40;99.90;;;;;;4987707;28;20026;-66
2021/12/01 06:39:57;;;;;;;7.40;3.13;;;8.40;99.90;;;;;;4987829;28;20034;-68
2021/12/01 06:42:23;;;;;;;9.50;3.00;;;8.30;99.90;;;;;;4987423;28;20053;-68
2021/12/01 06:44:49;;;;;;;6.80;3.00;;;8.20;99.90;;;;;;4992174;28;20065;-68
2021/12/01 06:47:16;;;;;;;6.35;3.63;;;8.20;99.90;;;;;;4991390;28;20026;-68
2021/12/01 06:49:45;;;;;;;6.85;3.03;;;8.20;99.90;;;;;;4991385;28;20026;-65
2021/12/01 06:52:12;;;;;;;5.45;3.08;;;8.10;99.90;;;;;;4990448;28;20153;-67
2021/12/01 06:54:39;;;;;;;6.13;2.80;;;8.20;99.90;;;;;;4991819;28;20033;-66
2021/12/01 06:57:04;;;;;;;5.63;2.97;;;8.10;99.90;;;;;;4991080;28;20054;-67
2021/12/01 06:59:30;;;;;;;6.68;2.72;;;8.10;99.90;;;;;;4990932;28;20049;-67
2021/12/01 07:01:56;;;;;;;8.60;2.88;;;8.10;99.90;;;;;;4983719;28;20175;-66
2021/12/01 07:04:22;;;;;;;5.68;2.30;;;8.10;99.90;;;;;;4987141;28;20038;-68
2021/12/01 07:06:48;;;;;;;6.63;3.00;;;8.20;99.90;;;;;;4990415;28;20019;-68
2021/12/01 07:09:18;;;;;;;6.85;2.58;;;8.20;99.90;;;;;;4991973;28;20109;-67
2021/12/01 07:11:46;;;;;;;7.57;2.95;;;8.20;99.90;;;;;;4988593;28;20440;-67
2021/12/01 07:14:12;;;;;;;6.90;2.53;;;8.20;99.90;;;;;;4984777;28;20485;-68
2021/12/01 07:16:37;;;;;;;5.22;2.80;;;8.30;99.90;;;;;;4986170;28;20113;-68
2021/12/01 07:19:03;;;;;;;4.80;2.63;;;8.30;99.90;;;;;;4981421;28;20023;-67
2021/12/01 07:21:29;;;;;;;9.65;3.53;;;8.40;99.90;;;;;;4985735;28;20030;-67
2021/12/01 07:23:55;;;;;;;10.93;4.03;;;8.40;99.90;;;;;;4989607;28;20027;-67
2021/12/01 07:26:21;;;;;;;10.60;2.80;;;8.50;99.90;;;;;;4989956;28;20036;-66
2021/12/01 07:28:46;;;;;;;6.97;2.72;;;8.60;99.90;;;;;;4988917;28;20034;-66
2021/12/01 07:31:12;;;;;;;10.18;2.83;;;8.70;99.90;;;;;;4987452;28;20477;-66
2021/12/01 07:33:38;;;;;;;5.47;2.90;;;8.80;99.90;;;;;;4990433;28;20046;-67
2021/12/01 07:36:05;;;;;;;6.13;2.55;;;8.90;99.90;;;;;;4984486;28;20058;-66
2021/12/01 07:38:31;;;;;;;7.80;3.25;;;8.90;99.90;;;;;;4978469;28;20023;-67
2021/12/01 07:40:57;;;;;;;6.00;2.83;;;9.10;99.90;;;;;;4986795;28;20465;-68
2021/12/01 07:43:23;;;;;;;6.43;3.33;;;9.10;99.90;;;;;;4987316;28;20041;-66
2021/12/01 07:45:48;;;;;;;9.52;3.05;;;9.20;99.90;;;;;;4988193;28;20032;-67
2021/12/01 07:48:14;;;;;;;3.72;2.50;;;9.20;99.90;;;;;;4988926;28;20030;-67
2021/12/01 07:50:40;;;;;;;7.18;2.25;;;9.30;99.90;;;;;;4990490;28;20053;-66
2021/12/01 07:53:06;;;;;;;5.30;2.83;;;9.40;99.90;;;;;;4989258;28;20030;-67
2021/12/01 07:55:32;;;;;;;8.63;4.35;;;9.50;99.90;;;;;;4990264;28;20105;-67
2021/12/01 07:57:58;;;;;;;8.88;3.00;;;9.60;99.90;;;;;;4991049;28;20480;-66
2021/12/01 08:00:24;;;;;;;4.05;2.17;;;9.60;99.90;;;;;;4991179;28;20018;-68
2021/12/01 08:02:49;;;;;;;6.60;3.15;;;9.60;99.90;;;;;;4990494;28;20045;-67
2021/12/01 08:05:15;;;;;;;8.05;3.03;;;9.50;99.90;;;;;;4987215;28;20030;-67
2021/12/01 08:07:41;;;;;;;5.97;3.15;;;9.50;99.90;;;;;;4989637;28;20038;-66
2021/12/01 08:10:08;;;;;;;6.18;2.95;;;9.50;99.90;;;;;;4971979;28;20038;-68
2021/12/01 08:12:34;;;;;;;6.47;3.63;;;9.60;99.90;;;;;;4974340;28;20026;-67
2021/12/01 08:15:02;;;;;;;11.25;3.85;;;9.60;99.90;;;;;;4985213;28;20124;-67
2021/12/01 08:17:28;;;;;;;8.85;3.83;;;9.70;99.90;;;;;;4979348;28;20027;-68
2021/12/01 08:19:54;;;;;;;8.75;3.58;;;9.80;99.90;;;;;;4970706;28;20699;-67
2021/12/01 08:22:19;;;;;;;8.40;4.05;;;9.90;99.90;;;;;;4974783;28;20448;-66
2021/12/01 08:24:45;;;;;;;10.73;3.72;;;10.00;99.90;;;;;;4985158;28;20046;-66
2021/12/01 08:27:11;;;;;;;10.88;4.82;;;10.00;99.90;;;;;;4989749;28;20483;-66
2021/12/01 08:29:36;;;;;;;9.30;3.92;;;10.00;99.90;;;;;;4990123;28;20053;-66
2021/12/01 08:32:03;;;;;;;7.15;3.65;;;10.10;99.90;;;;;;4988445;28;20030;-68
2021/12/01 08:34:28;;;;;;;9.63;4.22;;;10.20;99.90;;;;;;4988874;28;20031;-68
2021/12/01 08:36:54;;;;;;;7.57;4.45;;;10.40;99.90;;;;;;4990458;28;20018;-68
2021/12/01 08:39:20;;;;;;;7.13;2.75;;;10.60;99.90;;;;;;4989214;28;20367;-67
2021/12/01 08:41:45;;;;;;;15.93;4.05;;;10.70;99.90;;;;;;4990653;28;20026;-67
2021/12/01 08:44:11;;;;;;;3.00;2.50;;;11.00;99.90;;;;;;4988537;28;20433;-67
2021/12/01 08:46:37;;;;;;;5.60;2.65;;;11.20;99.90;;;;;;4979621;28;20022;-67
2021/12/01 08:49:03;;;;;;;2.53;2.33;;;11.40;99.90;;;;;;4980423;28;20038;-67
2021/12/01 08:51:30;;;;;;;4.70;2.42;;;11.70;99.90;;;;;;4990006;28;20081;-67
2021/12/01 08:53:56;;;;;;;7.72;2.85;;;11.80;99.90;;;;;;4990634;28;20027;-67
2021/12/01 08:56:22;;;;;;;6.22;2.85;;;11.90;99.90;;;;;;4991195;28;20418;-67
2021/12/01 08:58:48;;;;;;;3.90;2.33;;;11.90;99.90;;;;;;4990848;28;20026;-69
2021/12/01 09:01:14;;;;;;;5.68;2.38;;;11.80;99.90;;;;;;4986699;28;20031;-68
2021/12/01 09:03:39;;;;;;;7.43;3.08;;;11.70;99.90;;;;;;4986910;28;20761;-68
2021/12/01 09:06:05;;;;;;;6.85;2.42;;;11.60;99.90;;;;;;4986821;28;20049;-67
2021/12/01 09:08:31;;;;;;;4.15;2.65;;;11.50;99.90;;;;;;4987193;28;20038;-68
2021/12/01 09:10:59;;;;;;;7.07;2.72;;;11.50;99.90;;;;;;4985253;28;20034;-68
2021/12/01 09:13:28;;;;;;;5.78;3.53;;;11.30;99.90;;;;;;4986355;28;20042;-69
2021/12/01 09:15:56;;;;;;;4.20;2.80;;;11.20;99.90;;;;;;4985374;28;20660;-67
2021/12/01 09:18:24;;;;;;;4.72;2.70;;;11.10;99.90;;;;;;4974422;28;20031;-68
2021/12/01 09:20:50;;;;;;;5.07;2.85;;;11.00;99.90;;;;;;4974206;28;20019;-67
2021/12/01 09:23:16;;;;;;;2.58;2.25;;;11.00;99.90;;;;;;4976300;28;21803;-68
2021/12/01 09:25:42;;;;;;;4.68;2.80;;;11.10;99.90;;;;;;4974718;28;20038;-69
2021/12/01 09:28:08;;;;;;;5.65;2.53;;;11.20;99.90;;;;;;4973613;28;20096;-68
2021/12/01 09:30:34;;;;;;;5.65;2.33;;;11.40;99.90;;;;;;4986956;28;20488;-67
2021/12/01 09:33:00;;;;;;;10.00;3.33;;;11.50;99.90;;;;;;4988539;28;20023;-68
2021/12/01 09:35:26;;;;;;;8.13;3.13;;;11.60;99.90;;;;;;4988461;28;20030;-68
2021/12/01 09:37:52;;;;;;;5.07;3.10;;;11.80;99.90;;;;;;4983004;28;20015;-68
2021/12/01 09:40:19;;;;;;;2.47;2.05;;;11.90;99.90;;;;;;4987589;28;20135;-68
2021/12/01 09:42:49;;;;;;;10.15;4.07;;;12.00;99.90;;;;;;4989077;28;20475;-68
2021/12/01 09:45:16;;;;;;;8.63;3.58;;;12.10;99.90;;;;;;4987504;28;20117;-68
2021/12/01 09:47:43;;;;;;;5.82;2.50;;;12.30;99.90;;;;;;4989970;28;20399;-68
2021/12/01 09:50:10;;;;;;;4.65;2.05;;;12.30;99.90;;;;;;4982537;28;20050;-68
2021/12/01 09:52:36;;;;;;;8.02;2.72;;;12.30;99.90;;;;;;4980035;28;20035;-67
2021/12/01 09:55:03;;;;;;;3.97;2.75;;;12.40;99.90;;;;;;4992532;28;20029;-68
2021/12/01 09:57:29;;;;;;;3.88;2.00;;;12.40;99.90;;;;;;4991662;28;20030;-71
2021/12/01 09:59:55;;;;;;;7.57;3.20;;;12.60;99.90;;;;;;4990958;28;20200;-69
2021/12/01 10:02:24;;;;;;;3.75;2.47;;;12.70;99.90;;;;;;4990677;28;20057;-67
2021/12/01 10:04:51;;;;;;;3.50;2.10;;;12.90;99.90;;;;;;4986761;28;20022;-69
2021/12/01 10:07:21;;;;;;;5.55;2.38;;;13.00;99.90;;;;;;4984617;28;20101;-68
2021/12/01 10:09:57;;;;;;;3.13;2.30;;;13.10;99.90;;;;;;4982919;28;20546;-69
2021/12/01 10:12:24;;;;;;;2.90;2.25;;;13.20;99.90;;;;;;4989121;28;20504;-68
2021/12/01 10:14:51;;;;;;;7.45;3.35;;;13.30;99.90;;;;;;4992480;28;20031;-67
2021/12/01 10:17:34;;;;;;;6.00;2.80;;;13.40;99.90;;;;;;4992726;28;20315;-67
2021/12/01 10:20:15;;;;;;;4.63;2.83;;;13.50;99.90;;;;;;4982885;28;20087;-68
2021/12/01 10:23:06;;;;;;;2.95;2.55;;;13.50;99.90;;;;;;4991534;28;20481;-67
2021/12/01 10:25:32;;;;;;;4.63;2.63;;;13.40;99.90;;;;;;4987215;28;20073;-69
2021/12/01 10:27:58;;;;;;;3.53;2.17;;;13.30;99.90;;;;;;4991189;28;20062;-69
2021/12/01 10:30:39;;;;;;;5.75;2.60;;;13.20;99.90;;;;;;4990049;28;20057;-69
2021/12/01 10:33:13;;;;;;;8.48;2.88;;;13.10;99.90;;;;;;4993098;28;20026;-68
2021/12/01 10:35:40;;;;;;;5.90;2.92;;;13.10;99.90;;;;;;4991449;28;20488;-69
2021/12/01 10:38:07;;;;;;;4.97;2.28;;;13.00;99.90;;;;;;4992290;28;20105;-68
2021/12/01 10:40:36;;;;;;;4.03;2.17;;;13.10;99.90;;;;;;4991492;28;20156;-68
2021/12/01 10:43:03;;;;;;;3.58;2.90;;;13.10;99.90;;;;;;4991910;28;20164;-69
2021/12/01 10:45:42;;;;;;;6.03;2.38;;;13.20;99.90;;;;;;4991159;28;20027;-68
2021/12/01 10:48:10;;;;;;;7.32;2.55;;;13.20;99.90;;;;;;4990617;28;20057;-69
2021/12/01 10:50:41;;;;;;;10.75;3.22;;;13.10;99.90;;;;;;4991840;28;20114;-67
2021/12/01 10:53:12;;;;;;;7.07;2.58;;;13.00;99.90;;;;;;5006844;28;20034;-67
2021/12/01 10:55:43;;;;;;;4.72;2.50;;;13.00;99.90;;;;;;4991947;28;20101;-68
2021/12/01 10:58:09;;;;;;;9.98;3.08;;;12.90;99.90;;;;;;4991545;28;20053;-69
2021/12/01 11:00:42;;;;;;;7.18;2.63;;;12.80;99.90;;;;;;4989653;28;20536;-68
2021/12/01 11:03:09;;;;;;;3.90;2.60;;;12.80;99.90;;;;;;4992485;28;20395;-68
2021/12/01 11:05:36;;;;;;;5.32;2.83;;;12.90;99.90;;;;;;4991993;28;20105;-69
2021/12/01 11:08:29;;;;;;;4.95;2.17;;;12.90;99.90;;;;;;4990952;28;20113;-68
2021/12/01 11:11:11;;;;;;;12.05;3.63;;;12.90;99.90;;;;;;4991829;28;20034;-68
2021/12/01 11:13:40;;;;;;;4.40;1.88;;;12.80;99.90;;;;;;4991274;28;20034;-68
2021/12/01 11:16:07;;;;;;;3.50;2.72;;;12.80;99.90;;;;;;4991197;28;20053;-68
2021/12/01 11:18:35;;;;;;;10.43;4.57;;;12.80;99.90;;;;;;4988864;28;20033;-68
2021/12/01 11:21:19;;;;;;;7.15;2.88;;;12.90;99.90;;;;;;4989865;28;20089;-68
2021/12/01 11:23:46;;;;;;;5.35;3.10;;;13.00;99.90;;;;;;4990913;28;20038;-69
2021/12/01 11:26:19;;;;;;;14.02;3.53;;;13.00;99.90;;;;;;4989928;28;20022;-68
2021/12/01 11:28:51;;;;;;;12.55;5.35;;;13.10;99.90;;;;;;4988108;28;20071;-68
2021/12/01 11:31:25;;;;;;;8.35;4.85;;;13.20;99.90;;;;;;4987739;28;20038;-69
2021/12/01 11:33:55;;;;;;;5.90;3.58;;;13.40;99.90;;;;;;4989792;28;20392;-69
2021/12/01 11:36:30;;;;;;;11.30;3.50;;;13.40;99.90;;;;;;4990377;28;20190;-67
2021/12/01 11:38:59;;;;;;;9.80;3.33;;;13.40;99.90;;;;;;4991985;28;20547;-69
2021/12/01 11:41:28;;;;;;;5.85;3.85;;;13.50;99.90;;;;;;4991222;28;20527;-69
2021/12/01 11:43:55;;;;;;;11.25;4.97;;;13.50;99.90;;;;;;4985084;28;20078;-69
2021/12/01 11:46:21;;;;;;;7.82;4.28;;;13.30;99.90;;;;;;4989500;28;20030;-69
2021/12/01 11:48:54;;;;;;;6.55;3.80;;;13.20;99.90;;;;;;4990250;28;20473;-69
2021/12/01 11:51:31;;;;;;;7.78;3.60;;;13.00;99.90;;;;;;4983980;28;20030;-68
2021/12/01 11:54:12;;;;;;;10.52;4.90;;;12.90;99.90;;;;;;4989556;28;20393;-68
2021/12/01 11:57:07;;;;;;;9.07;4.43;;;12.80;99.90;;;;;;4988872;28;20022;-68
2021/12/01 11:59:38;;;;;;;8.02;4.38;;;12.80;99.90;;;;;;4989679;28;20495;-69
2021/12/01 12:02:19;;;;;;;8.70;4.65;;;12.80;99.90;;;;;;4985050;28;20496;-70
2021/12/01 12:04:55;;;;;;;9.60;5.72;;;12.90;99.90;;;;;;4987801;28;20029;-68
2021/12/01 12:07:31;;;;;;;13.77;6.60;;;12.80;99.90;;;;;;4989745;28;20034;-69
2021/12/01 12:10:08;;;;;;;9.38;6.65;;;12.60;99.90;;;;;;4988868;28;20026;-68
2021/12/01 12:13:07;;;;;;;16.65;7.93;;;12.50;99.90;;;;;;4987644;28;20022;-69
2021/12/01 12:15:50;;;;;;;18.27;8.90;;;12.20;99.90;;;;;;4985239;28;20084;-69
2021/12/01 12:18:34;;;;;;;;;;;12.10;99.90;;;;;;4985676;28;20492;-68
2021/12/01 12:21:48;;;;;;;12.38;9.60;;;12.00;99.90;;;;;;5003031;28;19953;-69
2021/12/01 12:24:14;;;;;;;9.23;8.30;;;12.00;99.90;;;;;;4988009;28;20109;-67
2021/12/01 12:26:49;;;;;;;16.25;9.05;;;12.00;99.90;;;;;;4990720;28;20101;-69
2021/12/01 12:29:22;;;;;;;16.77;9.63;;;11.90;99.90;;;;;;4989283;28;20544;-69
2021/12/01 12:31:51;;;;;;;11.52;7.30;;;11.80;99.90;;;;;;4989828;28;20031;-69
2021/12/01 12:34:21;;;;;;;19.95;9.73;;;11.80;99.90;;;;;;4986915;28;20035;-70
2021/12/01 12:36:50;;;;;;;15.27;11.82;;;11.80;99.90;;;;;;4986512;28;20027;-69
2021/12/01 12:39:46;;;;;;;15.20;9.88;;;11.80;99.90;;;;;;4990551;28;20053;-68
2021/12/01 12:42:13;;;;;;;18.08;11.18;;;11.70;99.90;;;;;;4986383;28;20038;-68
2021/12/01 12:44:59;;;;;;;14.75;11.57;;;11.60;99.90;;;;;;4988876;28;20065;-68
2021/12/01 12:47:39;;;;;;;14.88;10.02;;;11.50;99.90;;;;;;4984669;28;20417;-69
2021/12/01 12:50:08;;;;;;;12.25;8.68;;;11.50;99.90;;;;;;4987473;28;20057;-69
2021/12/01 12:52:39;;;;;;;17.42;8.95;;;11.50;99.90;;;;;;4984945;28;20026;-69
2021/12/01 12:55:17;;;;;;;8.85;6.43;;;11.60;99.90;;;;;;4977012;28;20027;-68
2021/12/01 12:57:58;;;;;;;23.30;9.65;;;11.60;99.90;;;;;;4985503;28;20037;-67
2021/12/01 13:00:29;;;;;;;19.27;10.50;;;11.60;99.90;;;;;;4989407;28;20089;-69
2021/12/01 13:03:16;;;;;;;13.65;8.27;;;11.60;99.90;;;;;;4984780;28;20038;-69